Golden Meadow, LA (70357)

3:38 AM CDT on September 18, 2014 (GMT -0500)
Port Fourchon Terminal | Change Station
CLOSE
Current Station
Airport
Location: Port Fourchon Terminal,
Elevation: 7 ft
Nearby Weather Stations

Elev 7 ft 29.12 °N, 90.20 °W | Updated 23 minutes ago

Partly Cloudy
Partly Cloudy
79 °F
Feels Like 79 °F
N
0
Wind Variable Wind from North

Today
High -- | Low -- °F
--% Chance of Precip.
Yesterday
High -- | Low -- °F
Precip. -- in
6:47 AM 7:02 PM
Waning Crescent, 29% visible
Pressure 29.91 in
Visibility 10.0 miles
Clouds Clear
Dew Point 75 °F
Humidity 89%
Rainfall 0.00 in
Snow Depth Not available.
UV 0 out of 12
Pollen 9.20 out of 12
Air Quality Not available.
Flu Activity Not available.
METAR KXPY 180815Z AUTO 00000KT 10SM CLR 26/24 A2991 RMK A01

More Conditions Fewer Conditions

Pressure 29.91 in
Visibility 10.0 miles
Clouds Clear
Dew Point 75 °F
Humidity 89%
Rainfall 0.00 in
Snow Depth Not available.
UV 0 out of 12
Pollen 9.20 out of 12
Air Quality Not available.
Flu Activity Not available.
METAR KXPY 180815Z AUTO 00000KT 10SM CLR 26/24 A2991 RMK A01

More Conditions Fewer Conditions

10-Day Weather Forecast

Almanac

Astronomy

Sep. 18, 2014 Rise Set
Actual Time 6:47 AM CDT 7:02 PM CDT
Civil Twilight 6:23 AM CDT 7:26 PM CDT
Nautical Twilight 5:55 AM CDT 7:53 PM CDT
Astronomical Twilight 5:27 AM CDT 8:21 PM CDT
Moon 1:57 AM CDT 3:37 PM CDT
Length of Visible Light 13h 02m
Length of Day
12h 15m
Tomorrow will be 1m 45s shorter.
Waning Crescent, 29% of the Moon is Illuminated
Today
Waning Crescent
Sep 24
New
Oct 1
First Quarter
Oct 8
Full
Oct 15
Last Quarter

Today's Extremes

State Highs State Lows

Community

WunderPhotos

Upload Photos

1,754,310 photos uploaded!

Nearby

Snow Depth

Station Depth Elevation
No new snow has been reported.

Earthquake Activity

City Distance Mag. Time & Date
No recent earthquake activity has been reported nearby.
Minimum magnitude displayed is 2.5.

Coastal Water Temperatures

Place Temperature
Amerada Pass, LA 84.9 °F

Nearby Weather Stations